sensor_id;sensor_type;location;lat;lon;timestamp;P1;P2;P0
50041;PMS7003;44598;51.606;5.912;2023-11-21T00:06:20;13.09;14.72;8.73
50041;PMS7003;44598;51.606;5.912;2023-11-21T00:19:39;15.61;16.8;9.27
50041;PMS7003;44598;51.606;5.912;2023-11-21T00:32:59;14.17;15.6;9.27
50041;PMS7003;44598;51.606;5.912;2023-11-21T00:59:39;14.29;15.71;8.51
50041;PMS7003;44598;51.606;5.912;2023-11-21T01:39:38;19.93;19.3;11.35
50041;PMS7003;44598;51.606;5.912;2023-11-21T01:52:58;20.77;19.85;11.56
50041;PMS7003;44598;51.606;5.912;2023-11-21T02:06:18;22.33;20.61;12.22
50041;PMS7003;44598;51.606;5.912;2023-11-21T02:19:38;25.09;21.48;12.44
50041;PMS7003;44598;51.606;5.912;2023-11-21T02:32:58;25.93;22.35;12.65
50041;PMS7003;44598;51.606;5.912;2023-11-21T02:46:17;25.69;22.03;12.65
50041;PMS7003;44598;51.606;5.912;2023-11-21T02:59:37;25.81;21.05;12.0
50041;PMS7003;44598;51.606;5.912;2023-11-21T03:12:57;23.77;21.26;12.0
50041;PMS7003;44598;51.606;5.912;2023-11-21T03:26:17;26.05;23.01;12.44
50041;PMS7003;44598;51.606;5.912;2023-11-21T03:39:37;25.45;22.14;12.54
50041;PMS7003;44598;51.606;5.912;2023-11-21T04:06:17;23.77;21.7;12.0
50041;PMS7003;44598;51.606;5.912;2023-11-21T04:19:36;22.81;21.05;11.67
50041;PMS7003;44598;51.606;5.912;2023-11-21T04:32:56;22.69;20.83;11.78
50041;PMS7003;44598;51.606;5.912;2023-11-21T04:46:16;21.49;20.28;11.89
50041;PMS7003;44598;51.606;5.912;2023-11-21T04:59:36;22.69;20.94;12.0
50041;PMS7003;44598;51.606;5.912;2023-11-21T05:26:15;24.85;22.25;12.76
50041;PMS7003;44598;51.606;5.912;2023-11-21T05:39:35;25.21;22.25;12.54
50041;PMS7003;44598;51.606;5.912;2023-11-21T05:52:55;24.73;22.25;12.65
50041;PMS7003;44598;51.606;5.912;2023-11-21T06:06:15;24.25;22.03;12.76
50041;PMS7003;44598;51.606;5.912;2023-11-21T06:46:14;24.49;22.14;12.65
50041;PMS7003;44598;51.606;5.912;2023-11-21T06:59:34;24.01;21.81;12.65
50041;PMS7003;44598;51.606;5.912;2023-11-21T07:12:54;25.21;22.46;12.98
50041;PMS7003;44598;51.606;5.912;2023-11-21T08:19:33;22.45;20.83;12.0
50041;PMS7003;44598;51.606;5.912;2023-11-21T08:32:53;20.05;19.19;11.24
50041;PMS7003;44598;51.606;5.912;2023-11-21T08:46:13;17.05;17.78;11.13
50041;PMS7003;44598;51.606;5.912;2023-11-21T08:59:33;15.85;17.23;9.82
50041;PMS7003;44598;51.606;5.912;2023-11-21T09:12:53;17.53;18.32;10.91
50041;PMS7003;44598;51.606;5.912;2023-11-21T09:26:12;16.09;17.45;10.04
50041;PMS7003;44598;51.606;5.912;2023-11-21T09:39:32;15.25;16.9;10.04
50041;PMS7003;44598;51.606;5.912;2023-11-21T09:52:52;17.77;18.32;10.36
50041;PMS7003;44598;51.606;5.912;2023-11-21T10:06:12;18.37;18.65;11.35
50041;PMS7003;44598;51.606;5.912;2023-11-21T10:19:32;20.29;19.3;11.24
50041;PMS7003;44598;51.606;5.912;2023-11-21T10:46:11;21.13;20.07;11.78
50041;PMS7003;44598;51.606;5.912;2023-11-21T10:59:31;22.93;21.26;12.33
50041;PMS7003;44598;51.606;5.912;2023-11-21T11:26:11;23.53;20.94;12.33
50041;PMS7003;44598;51.606;5.912;2023-11-21T11:39:31;24.85;22.03;12.87
50041;PMS7003;44598;51.606;5.912;2023-11-21T11:52:50;24.73;22.03;12.65
50041;PMS7003;44598;51.606;5.912;2023-11-21T12:19:30;21.25;19.96;11.24
50041;PMS7003;44598;51.606;5.912;2023-11-21T12:32:50;23.41;20.83;12.0
50041;PMS7003;44598;51.606;5.912;2023-11-21T12:46:10;23.05;20.94;12.11
50041;PMS7003;44598;51.606;5.912;2023-11-21T12:59:30;24.13;21.48;12.22
50041;PMS7003;44598;51.606;5.912;2023-11-21T13:12:49;24.61;21.92;12.0
50041;PMS7003;44598;51.606;5.912;2023-11-21T13:26:09;23.29;21.26;11.89
50041;PMS7003;44598;51.606;5.912;2023-11-21T13:52:49;14.29;15.81;8.73
50041;PMS7003;44598;51.606;5.912;2023-11-21T14:06:09;27.61;23.66;14.4
50041;PMS7003;44598;51.606;5.912;2023-11-21T14:19:29;17.41;17.56;10.69
50041;PMS7003;44598;51.606;5.912;2023-11-21T14:46:08;18.37;18.54;11.56
50041;PMS7003;44598;51.606;5.912;2023-11-21T14:59:28;20.29;19.52;11.67
50041;PMS7003;44598;51.606;5.912;2023-11-21T15:12:48;16.21;17.12;8.84
50041;PMS7003;44598;51.606;5.912;2023-11-21T15:26:08;17.41;17.78;9.71
50041;PMS7003;44598;51.606;5.912;2023-11-21T16:46:07;18.37;18.43;9.6
